Time;durP1;ratioP1;P1;durP2;ratioP2;P2;SDS_P1;SDS_P2;PMS_P1;PMS_P2;Temp;Humidity;BMP_temperature;BMP_pressure;BME280_temperature;BME280_humidity;BME280_pressure;Samples;Min_cycle;Max_cycle;Signal;HPM_P1;HPM_P2
2022/07/16 00:02:39;;;;;;;5.38;3.05;;;;;;;14.62;69.86;102043.31;4993444;28;20048;-95
2022/07/16 00:05:05;;;;;;;7.80;3.17;;;;;;;14.66;70.12;102043.00;4991461;28;20036;-96
2022/07/16 00:07:31;;;;;;;5.43;3.50;;;;;;;14.64;69.74;102042.25;4997704;28;20092;-94
2022/07/16 00:09:58;;;;;;;11.05;3.45;;;;;;;14.65;69.54;102032.50;5002119;28;20465;-94
2022/07/16 00:12:26;;;;;;;5.53;3.03;;;;;;;14.59;69.39;102035.59;4996439;28;20034;-94
2022/07/16 00:14:52;;;;;;;7.85;2.85;;;;;;;14.63;69.54;102045.03;4991387;28;20104;-96
2022/07/16 00:17:17;;;;;;;9.07;2.95;;;;;;;14.54;69.35;102035.94;4991413;28;20026;-94
2022/07/16 00:19:43;;;;;;;6.55;3.20;;;;;;;14.54;69.46;102046.53;4998373;28;20090;-93
2022/07/16 00:22:12;;;;;;;8.35;2.80;;;;;;;14.52;69.62;102042.31;4995019;28;20078;-94
2022/07/16 00:24:43;;;;;;;5.93;3.00;;;;;;;14.55;69.71;102044.72;4991991;28;20413;-94
2022/07/16 00:27:09;;;;;;;5.40;3.00;;;;;;;14.58;69.95;102047.16;4990920;28;20022;-95
2022/07/16 00:29:34;;;;;;;5.53;3.47;;;;;;;14.55;70.00;102052.69;4990156;28;20113;-95
2022/07/16 00:31:59;;;;;;;5.50;3.58;;;;;;;14.57;69.72;102050.75;4991091;28;20462;-95
2022/07/16 00:34:25;;;;;;;6.95;3.53;;;;;;;14.52;69.79;102052.91;4990939;28;20068;-93
2022/07/16 00:36:51;;;;;;;6.78;3.40;;;;;;;14.56;69.95;102044.63;4991325;28;20029;-95
2022/07/16 00:39:20;;;;;;;5.78;3.65;;;;;;;14.60;69.73;102055.84;4991639;28;20056;-95
2022/07/16 00:41:47;;;;;;;8.40;3.40;;;;;;;14.60;70.21;102046.09;4990657;28;20045;-94
2022/07/16 00:44:18;;;;;;;9.30;3.45;;;;;;;14.66;70.44;102055.41;4991427;28;20025;-95
2022/07/16 00:46:45;;;;;;;5.53;3.22;;;;;;;14.74;69.81;102050.38;4991259;28;20029;-95
2022/07/16 00:49:12;;;;;;;4.78;3.30;;;;;;;14.75;69.80;102052.06;4991238;28;20117;-95
2022/07/16 00:51:42;;;;;;;5.90;3.45;;;;;;;14.81;69.59;102045.47;4997282;28;20113;-96
2022/07/16 00:54:08;;;;;;;7.75;3.58;;;;;;;14.78;70.02;102045.72;4999053;28;20026;-94
2022/07/16 00:56:33;;;;;;;5.63;3.55;;;;;;;14.83;70.48;102043.59;4991485;28;20100;-95
2022/07/16 00:58:59;;;;;;;5.53;3.33;;;;;;;14.88;70.05;102044.94;4990794;28;20022;-95
2022/07/16 01:01:27;;;;;;;5.63;3.40;;;;;;;14.93;70.23;102048.09;4993314;28;20029;-95
2022/07/16 01:03:52;;;;;;;5.03;3.58;;;;;;;14.95;69.63;102042.69;4993061;28;20015;-95
2022/07/16 01:06:18;;;;;;;6.85;3.53;;;;;;;15.01;69.82;102048.38;4992150;28;20022;-94
2022/07/16 01:09:17;;;;;;;4.38;3.63;;;;;;;15.10;69.46;102054.81;4995460;28;20030;-96
2022/07/16 01:11:47;;;;;;;6.70;3.50;;;;;;;15.09;69.98;102052.28;5011275;28;20022;-95
2022/07/16 01:14:23;;;;;;;5.82;3.70;;;;;;;15.09;69.39;102041.66;5014958;28;20034;-94
2022/07/16 01:16:51;;;;;;;8.40;3.80;;;;;;;15.15;69.42;102035.91;5012181;28;20041;-95
2022/07/16 01:19:16;;;;;;;8.32;3.67;;;;;;;15.18;69.21;102040.97;5010164;28;20082;-95
2022/07/16 01:21:44;;;;;;;8.25;3.95;;;;;;;15.22;69.26;102034.53;5009866;28;20014;-95
2022/07/16 01:24:13;;;;;;;6.53;3.88;;;;;;;15.17;69.16;102029.53;5015434;28;20061;-95
2022/07/16 01:26:39;;;;;;;7.00;3.67;;;;;;;15.23;69.23;102033.56;5014212;28;20037;-94
2022/07/16 01:29:08;;;;;;;6.70;3.47;;;;;;;15.19;69.06;102032.06;5012605;28;20031;-95
2022/07/16 01:31:36;;;;;;;6.45;3.55;;;;;;;15.23;68.72;102026.44;4995975;28;20036;-95
2022/07/16 01:36:53;;;;;;;5.30;3.10;;;;;;;15.25;69.28;102048.38;4998983;28;20037;-96
2022/07/16 01:39:18;;;;;;;6.47;3.22;;;;;;;15.15;68.71;102035.91;4995279;28;20019;-96
2022/07/16 01:41:54;;;;;;;5.13;3.17;;;;;;;15.22;68.74;102047.78;4995529;28;20037;-95
2022/07/16 01:44:24;;;;;;;5.25;2.95;;;;;;;15.23;68.66;102044.16;4994502;28;20049;-95
2022/07/16 01:46:51;;;;;;;6.28;3.70;;;;;;;15.20;68.59;102044.34;4993822;28;20037;-96
2022/07/16 01:49:19;;;;;;;13.82;3.67;;;;;;;15.20;68.26;102049.66;4992719;28;20050;-96
2022/07/16 01:51:47;;;;;;;9.18;3.78;;;;;;;15.20;68.21;102049.66;4993595;28;20026;-96
2022/07/16 01:54:12;;;;;;;5.22;3.47;;;;;;;15.21;68.24;102046.06;4992223;28;20034;-96
2022/07/16 01:56:38;;;;;;;7.50;3.63;;;;;;;15.21;67.94;102043.41;4993144;28;20026;-96
2022/07/16 01:59:04;;;;;;;7.22;4.05;;;;;;;15.23;67.66;102044.16;4993607;28;20030;-96
2022/07/16 02:01:29;;;;;;;5.53;3.70;;;;;;;15.21;67.60;102041.63;4993570;28;20061;-96
2022/07/16 02:03:55;;;;;;;7.35;3.92;;;;;;;15.16;67.59;102032.28;4996523;28;20029;-96
2022/07/16 02:06:20;;;;;;;5.72;3.47;;;;;;;15.13;67.85;102036.03;4992717;28;20031;-96
2022/07/16 02:08:46;;;;;;;7.60;3.75;;;;;;;15.15;67.90;102031.44;4993727;28;20065;-95
2022/07/16 02:11:11;;;;;;;7.72;3.75;;;;;;;15.19;67.89;102037.38;4992754;28;20039;-95
2022/07/16 02:13:36;;;;;;;7.65;4.05;;;;;;;15.12;67.98;102029.03;4997749;28;20396;-96
2022/07/16 02:16:02;;;;;;;6.70;3.90;;;;;;;15.17;67.91;102028.69;4993757;28;20105;-95
2022/07/16 02:18:27;;;;;;;7.10;4.00;;;;;;;15.19;68.23;102030.25;4991976;28;20023;-95
2022/07/16 02:20:55;;;;;;;7.93;4.50;;;;;;;15.15;68.33;102020.00;4991734;28;20026;-94
2022/07/16 02:23:21;;;;;;;14.50;4.22;;;;;;;15.16;68.49;102024.34;4992002;28;20162;-95
2022/07/16 02:25:46;;;;;;;8.90;4.20;;;;;;;15.18;68.52;102025.06;4993502;28;20041;-95
2022/07/16 02:28:12;;;;;;;4.80;4.00;;;;;;;15.20;68.13;102020.50;4991503;28;20026;-96
2022/07/16 02:30:42;;;;;;;8.63;3.92;;;;;;;15.21;68.68;102027.50;4991850;28;20026;-95
2022/07/16 02:33:09;;;;;;;7.93;4.18;;;;;;;15.21;68.60;102031.03;4992424;28;20026;-96
2022/07/16 02:35:35;;;;;;;9.52;4.55;;;;;;;15.19;69.14;102026.75;4991152;28;20026;-95
2022/07/16 02:38:01;;;;;;;6.13;4.20;;;;;;;15.22;68.44;102016.81;4991842;28;20445;-95
2022/07/16 02:40:34;;;;;;;10.50;4.70;;;;;;;15.16;69.00;102027.00;4991263;28;20054;-94
2022/07/16 02:43:06;;;;;;;7.45;4.68;;;;;;;15.20;68.59;102018.69;4992440;28;20045;-95
2022/07/16 02:45:35;;;;;;;7.05;4.60;;;;;;;15.19;68.58;102024.09;4991997;28;20517;-94
2022/07/16 02:48:00;;;;;;;9.80;5.28;;;;;;;15.14;68.49;102016.50;4992925;28;20018;-96
2022/07/16 02:50:29;;;;;;;8.13;4.60;;;;;;;15.12;68.71;102012.28;4992635;28;20112;-95
2022/07/16 02:52:58;;;;;;;8.15;4.72;;;;;;;15.15;68.86;102022.66;4992985;28;20617;-95
2022/07/16 02:55:24;;;;;;;7.88;4.65;;;;;;;15.14;68.83;102013.84;4993033;28;20482;-95
2022/07/16 02:57:52;;;;;;;8.45;4.72;;;;;;;15.11;69.23;102015.88;4996731;28;20061;-95
2022/07/16 03:00:18;;;;;;;9.43;4.72;;;;;;;15.12;69.13;102021.06;4995273;28;20034;-95
2022/07/16 03:02:46;;;;;;;9.32;4.68;;;;;;;15.12;69.78;102021.06;4994042;28;20392;-95
2022/07/16 03:05:11;;;;;;;8.07;4.55;;;;;;;15.06;69.57;102024.19;4995018;28;20101;-95
2022/07/16 03:07:37;;;;;;;7.78;4.93;;;;;;;15.16;69.25;102027.00;5000457;28;20049;-93
2022/07/16 03:10:07;;;;;;;7.38;4.90;;;;;;;15.13;69.46;102032.53;5001985;28;20441;-95
2022/07/16 03:12:32;;;;;;;8.48;4.70;;;;;;;15.13;69.73;102036.03;4991844;28;20038;-95
2022/07/16 03:14:59;;;;;;;6.00;4.57;;;;;;;15.18;69.43;102035.69;4992967;28;20030;-95
2022/07/16 03:17:24;;;;;;;7.47;4.90;;;;;;;15.19;69.34;102038.22;4991912;28;20029;-94
2022/07/16 03:19:50;;;;;;;14.15;5.32;;;;;;;15.19;68.97;102037.38;4991663;28;20022;-96
2022/07/16 03:22:18;;;;;;;10.20;5.32;;;;;;;15.22;68.94;102042.47;4991382;28;20456;-94
2022/07/16 03:24:44;;;;;;;9.40;5.18;;;;;;;15.21;68.63;102038.09;4992520;28;20026;-95
2022/07/16 03:27:16;;;;;;;8.40;5.25;;;;;;;15.18;69.07;102031.22;4991122;28;20509;-95
2022/07/16 03:29:41;;;;;;;10.20;5.70;;;;;;;15.18;69.03;102038.31;4991713;28;20026;-95
2022/07/16 03:32:07;;;;;;;9.65;4.95;;;;;;;15.23;68.81;102045.00;4992371;28;20604;-93
2022/07/16 03:34:33;;;;;;;7.85;4.97;;;;;;;15.21;68.98;102044.28;4992432;28;20105;-94
2022/07/16 03:37:07;;;;;;;6.97;5.20;;;;;;;15.25;68.70;102052.84;4994233;28;20027;-96
2022/07/16 03:39:40;;;;;;;11.45;5.43;;;;;;;15.19;69.08;102047.97;4994903;28;20030;-93
2022/07/16 03:42:05;;;;;;;8.63;5.80;;;;;;;15.18;69.07;102057.72;4998215;28;20022;-94
2022/07/16 03:44:31;;;;;;;15.55;5.82;;;;;;;15.17;69.14;102048.09;5010159;28;20017;-95
2022/07/16 03:46:56;;;;;;;10.07;5.55;;;;;;;15.16;69.32;102042.91;5012291;28;20030;-95
2022/07/16 03:49:27;;;;;;;15.27;6.15;;;;;;;15.13;69.56;102059.03;5009807;28;20034;-95
2022/07/16 03:51:52;;;;;;;8.60;5.55;;;;;;;15.14;69.69;102061.56;4998239;28;20343;-96
2022/07/16 03:54:23;;;;;;;8.70;5.90;;;;;;;15.14;69.99;102056.28;5007784;28;20110;-96
2022/07/16 03:56:53;;;;;;;8.43;5.90;;;;;;;15.13;70.11;102059.03;5009220;28;20018;-96
2022/07/16 03:59:18;;;;;;;12.32;6.07;;;;;;;15.14;70.34;102053.63;5007406;28;20037;-95
2022/07/16 04:01:47;;;;;;;6.40;5.50;;;;;;;15.21;70.40;102073.44;5003113;28;20027;-94
2022/07/16 04:04:18;;;;;;;8.02;5.47;;;;;;;15.17;70.82;102060.50;4995643;28;20023;-96
2022/07/16 04:06:44;;;;;;;7.75;5.88;;;;;;;15.23;70.99;102071.53;4993649;28;20118;-95
2022/07/16 04:09:09;;;;;;;10.02;6.30;;;;;;;15.24;71.54;102072.38;4995103;28;20082;-96
2022/07/16 04:11:39;;;;;;;6.45;5.70;;;;;;;15.33;71.63;102076.97;4996671;28;20107;-94
2022/07/16 04:14:04;;;;;;;8.23;6.30;;;;;;;15.44;71.80;102071.72;4998504;28;20042;-96
2022/07/16 04:16:33;;;;;;;12.98;6.13;;;;;;;15.93;70.71;102076.81;4993849;28;20033;-95
2022/07/16 04:18:58;;;;;;;8.35;5.80;;;;;;;16.68;68.83;102068.31;4995791;28;20116;-95
2022/07/16 04:21:23;;;;;;;7.43;5.72;;;;;;;16.94;67.62;102062.72;4993639;28;20048;-96
2022/07/16 04:23:52;;;;;;;8.63;5.65;;;;;;;17.32;66.30;102073.72;4993749;28;20100;-95
2022/07/16 04:26:17;;;;;;;9.60;5.80;;;;;;;17.31;65.98;102072.03;4995075;28;20054;-96
2022/07/16 04:28:43;;;;;;;11.75;5.70;;;;;;;17.42;65.81;102074.63;4995260;28;20478;-94
2022/07/16 04:31:08;;;;;;;8.48;5.60;;;;;;;17.08;66.75;102081.88;4990706;28;20026;-94
2022/07/16 04:33:33;;;;;;;10.43;5.95;;;;;;;17.04;67.24;102079.59;4992801;28;20026;-96
2022/07/16 04:35:59;;;;;;;8.70;5.38;;;;;;;16.77;68.56;102083.50;4993513;28;20026;-96
2022/07/16 04:38:27;;;;;;;9.75;6.00;;;;;;;16.76;68.74;102081.81;4993960;28;20023;-95
2022/07/16 04:40:53;;;;;;;9.75;6.00;;;;;;;16.66;69.60;102080.88;4999914;28;20490;-95
2022/07/16 04:43:18;;;;;;;7.35;5.80;;;;;;;16.44;70.66;102081.72;4994473;28;20125;-95
2022/07/16 04:45:43;;;;;;;8.80;6.03;;;;;;;16.39;70.86;102091.00;4995517;28;20382;-95
2022/07/16 04:48:09;;;;;;;12.45;6.57;;;;;;;16.27;71.52;102083.03;4998091;28;20038;-94
2022/07/16 04:50:34;;;;;;;7.75;5.97;;;;;;;16.25;71.74;102087.63;5001936;28;20623;-96
2022/07/16 04:53:00;;;;;;;8.77;6.30;;;;;;;16.22;72.61;102092.31;5004120;28;20030;-94
2022/07/16 04:55:26;;;;;;;9.50;6.65;;;;;;;16.16;73.34;102098.97;5003350;28;20185;-96
2022/07/16 04:57:51;;;;;;;13.30;6.47;;;;;;;16.09;74.16;102097.75;4999655;28;20030;-96
2022/07/16 05:00:16;;;;;;;10.13;6.50;;;;;;;16.13;74.79;102099.19;4995398;28;20109;-96
2022/07/16 05:02:58;;;;;;;10.00;6.53;;;;;;;16.12;75.28;102107.28;4996353;28;20030;-95
2022/07/16 05:05:28;;;;;;;10.77;6.30;;;;;;;16.08;76.78;102105.84;4999025;28;20030;-93
2022/07/16 05:07:53;;;;;;;11.40;6.40;;;;;;;16.06;77.72;102102.44;5007760;28;20049;-94
2022/07/16 05:10:20;;;;;;;15.45;6.50;;;;;;;16.08;78.15;102106.69;5005655;28;20030;-95
2022/07/16 05:12:46;;;;;;;11.48;6.00;;;;;;;16.12;79.37;102110.78;5007427;28;20034;-95
2022/07/16 05:15:11;;;;;;;12.18;5.60;;;;;;;16.11;79.80;102117.06;5005653;28;20026;-94
2022/07/16 05:17:37;;;;;;;9.65;5.65;;;;;;;16.15;80.28;102113.19;5004767;28;20085;-94
2022/07/16 05:20:03;;;;;;;8.73;5.38;;;;;;;16.20;81.02;102111.03;5006098;28;20019;-94
2022/07/16 05:22:37;;;;;;;8.93;5.30;;;;;;;16.29;81.10;102114.78;5003882;28;20080;-96
2022/07/16 05:25:10;;;;;;;8.43;4.57;;;;;;;16.29;81.70;102120.94;5000046;28;20109;-95
2022/07/16 05:27:41;;;;;;;6.47;5.10;;;;;;;16.36;81.90;102125.75;4996163;28;20394;-96
2022/07/16 05:30:09;;;;;;;8.55;5.32;;;;;;;16.38;81.96;102123.84;4994327;28;20022;-96
2022/07/16 05:32:36;;;;;;;8.98;4.95;;;;;;;16.46;81.97;102129.41;4996958;28;20034;-95
2022/07/16 05:35:04;;;;;;;7.57;5.03;;;;;;;16.43;82.31;102121.69;4993705;28;20030;-96
2022/07/16 05:37:35;;;;;;;9.02;5.30;;;;;;;16.47;82.10;102128.44;4994448;28;20113;-94
2022/07/16 05:40:01;;;;;;;13.40;5.25;;;;;;;16.54;82.75;102135.81;4994948;28;20032;-95
2022/07/16 05:42:26;;;;;;;11.70;5.00;;;;;;;16.58;82.87;102131.09;4995364;28;20030;-96
2022/07/16 05:44:52;;;;;;;8.93;5.15;;;;;;;16.65;82.69;102132.31;4993482;28;20015;-94
2022/07/16 05:47:17;;;;;;;9.02;4.82;;;;;;;16.74;82.66;102128.94;4993077;28;20096;-94
2022/07/16 05:49:43;;;;;;;7.97;4.85;;;;;;;16.87;82.55;102140.31;4993560;28;20047;-95
2022/07/16 05:52:11;;;;;;;11.15;4.38;;;;;;;16.90;82.72;102137.41;4994050;28;20402;-93
2022/07/16 05:54:40;;;;;;;9.50;4.45;;;;;;;16.98;82.54;102141.25;4995366;28;20442;-95
2022/07/16 05:57:05;;;;;;;11.50;4.20;;;;;;;17.04;82.25;102138.09;4992562;28;20136;-96
2022/07/16 05:59:31;;;;;;;5.20;3.75;;;;;;;17.08;82.40;102136.88;4997533;28;20478;-95
2022/07/16 06:01:56;;;;;;;7.55;3.80;;;;;;;17.10;82.31;102137.59;4994772;28;20038;-96
2022/07/16 06:04:26;;;;;;;8.32;3.80;;;;;;;17.14;82.16;102144.34;4997339;28;20114;-95
2022/07/16 06:06:51;;;;;;;9.02;3.33;;;;;;;17.23;82.32;102151.63;4998475;28;20054;-94
2022/07/16 06:09:17;;;;;;;8.52;3.47;;;;;;;17.25;81.57;102152.34;4996981;28;20033;-95
2022/07/16 06:11:42;;;;;;;6.10;2.67;;;;;;;17.29;80.01;102153.78;4994638;28;20034;-95
2022/07/16 06:14:25;;;;;;;6.85;2.88;;;;;;;17.38;80.15;102163.66;4994296;28;20081;-96
2022/07/16 06:16:51;;;;;;;6.60;2.53;;;;;;;17.47;78.45;102170.88;4994625;28;20049;-96
2022/07/16 06:19:17;;;;;;;8.50;2.53;;;;;;;17.52;77.69;102166.03;4993023;28;20529;-95
2022/07/16 06:21:53;;;;;;;5.47;2.40;;;;;;;17.55;77.03;102164.91;5002128;28;20031;-96
2022/07/16 06:24:19;;;;;;;4.45;2.10;;;;;;;17.57;76.99;102162.13;5000382;28;20050;-96
2022/07/16 06:27:00;;;;;;;7.53;2.05;;;;;;;17.68;74.81;102170.97;5001285;28;20430;-96
2022/07/16 06:29:25;;;;;;;4.07;1.77;;;;;;;17.74;74.81;102173.13;4995013;28;20030;-96
2022/07/16 06:31:51;;;;;;;5.22;1.55;;;;;;;17.74;73.12;102172.28;4994323;28;20022;-96
2022/07/16 06:34:16;;;;;;;6.13;1.90;;;;;;;17.77;72.94;102177.34;4997510;28;20061;-96
2022/07/16 06:37:33;;;;;;;4.80;1.70;;;;;;;17.82;73.56;102186.63;5003183;28;20030;-96
2022/07/16 06:40:06;;;;;;;3.92;1.83;;;;;;;17.74;73.29;102175.78;5005305;28;20036;-96
2022/07/16 06:42:35;;;;;;;7.38;1.90;;;;;;;17.75;73.21;102180.13;5006823;28;20524;-96
2022/07/16 06:45:34;;;;;;;6.22;1.63;;;;;;;17.78;73.39;102179.03;5009585;28;20057;-96
2022/07/16 06:48:27;;;;;;;6.30;1.95;;;;;;;17.82;72.49;102188.47;5008358;28;20041;-96
2022/07/16 06:51:14;;;;;;;4.25;1.90;;;;;;;17.88;71.79;102189.75;5004820;28;20042;-96
2022/07/16 06:53:42;;;;;;;4.80;1.50;;;;;;;17.90;68.89;102196.66;5002828;28;20026;-96
2022/07/16 06:56:35;;;;;;;3.75;1.58;;;;;;;17.89;68.81;102197.63;5011630;28;20027;-96
2022/07/16 07:01:40;;;;;;;4.57;1.58;;;;;;;18.02;68.17;102206.28;4949462;28;20405;-74
2022/07/16 07:04:06;;;;;;;2.40;1.20;;;;;;;18.16;67.17;102213.97;4935351;29;20022;-73
2022/07/16 07:06:31;;;;;;;4.60;1.50;;;;;;;18.32;66.94;102218.81;4951805;28;20039;-72
2022/07/16 07:08:57;;;;;;;4.50;1.45;;;;;;;18.46;65.68;102217.66;4934187;29;20030;-73
2022/07/16 07:11:22;;;;;;;5.60;1.20;;;;;;;18.44;65.17;102219.63;4951988;29;20535;-73
2022/07/16 07:13:48;;;;;;;4.05;1.30;;;;;;;18.69;66.06;102224.56;4952387;29;20113;-73
2022/07/16 07:16:13;;;;;;;2.42;1.38;;;;;;;18.84;65.32;102225.06;4952271;29;20071;-72
2022/07/16 07:18:38;;;;;;;2.05;1.15;;;;;;;19.12;62.19;102233.31;4951903;29;20071;-72
2022/07/16 07:21:04;;;;;;;2.67;1.20;;;;;;;19.35;60.43;102232.97;4952473;28;20027;-72
2022/07/16 07:23:29;;;;;;;4.45;1.15;;;;;;;19.51;56.93;102235.09;4951157;29;20023;-72
2022/07/16 07:25:55;;;;;;;3.00;0.85;;;;;;;19.66;55.40;102230.25;4952507;29;20023;-72
2022/07/16 07:28:21;;;;;;;3.10;1.00;;;;;;;19.76;54.86;102240.94;4951596;29;20059;-72
2022/07/16 07:30:46;;;;;;;5.10;1.30;;;;;;;19.80;54.70;102237.84;4934210;29;20054;-72
2022/07/16 07:33:11;;;;;;;3.85;1.05;;;;;;;19.82;54.76;102233.22;4952063;29;20027;-72
2022/07/16 07:35:37;;;;;;;2.83;1.33;;;;;;;20.03;56.71;102233.09;4951666;29;20062;-73
2022/07/16 07:38:03;;;;;;;2.42;1.10;;;;;;;20.11;56.16;102237.72;4964124;28;20054;-73
2022/07/16 07:40:28;;;;;;;4.85;1.15;;;;;;;20.05;54.21;102235.63;4970444;28;20037;-73
2022/07/16 07:42:59;;;;;;;4.20;1.50;;;;;;;20.34;53.64;102236.41;4971552;28;20421;-72
2022/07/16 07:45:24;;;;;;;2.30;1.10;;;;;;;20.59;53.41;102238.50;4970028;28;20399;-71
2022/07/16 07:47:50;;;;;;;2.15;1.02;;;;;;;20.68;52.73;102241.31;4953942;28;20034;-72
2022/07/16 07:50:18;;;;;;;3.28;1.02;;;;;;;20.76;51.52;102250.28;4970681;28;20089;-72
2022/07/16 07:52:43;;;;;;;3.15;1.17;;;;;;;20.68;51.53;102252.00;4951948;28;20022;-71
2022/07/16 07:55:09;;;;;;;4.15;1.20;;;;;;;20.46;51.22;102255.88;4970085;28;20084;-71
2022/07/16 07:57:34;;;;;;;1.98;1.20;;;;;;;20.17;52.28;102248.69;4955052;28;20031;-71
2022/07/16 08:00:01;;;;;;;3.50;1.30;;;;;;;20.25;53.94;102250.63;4933469;29;20130;-71
2022/07/16 08:02:27;;;;;;;3.40;0.98;;;;;;;20.24;53.57;102248.94;4951055;29;20119;-71
2022/07/16 08:04:52;;;;;;;2.85;1.40;;;;;;;20.44;54.31;102257.84;4950999;29;20031;-73
2022/07/16 08:07:18;;;;;;;7.80;1.50;;;;;;;20.53;51.60;102268.50;4950788;29;20106;-71
2022/07/16 08:09:43;;;;;;;1.88;1.10;;;;;;;20.74;52.59;102262.97;4951394;29;20027;-73
2022/07/16 08:12:09;;;;;;;4.95;1.05;;;;;;;20.67;51.98;102267.22;4950513;29;20085;-71
2022/07/16 08:14:35;;;;;;;4.13;1.20;;;;;;;20.62;52.09;102267.66;4950606;29;20031;-73
2022/07/16 08:17:00;;;;;;;3.17;1.20;;;;;;;20.64;51.76;102276.38;4934189;29;20085;-73
2022/07/16 08:19:26;;;;;;;3.22;1.25;;;;;;;20.80;52.58;102274.91;4949711;28;20058;-72
2022/07/16 08:21:52;;;;;;;2.70;1.10;;;;;;;21.07;51.79;102280.31;4951039;29;20383;-71
2022/07/16 08:27:01;;;;;;;5.25;1.23;;;;;;;21.01;49.79;102280.91;4950340;29;20100;-72
2022/07/16 08:29:27;;;;;;;7.50;1.20;;;;;;;21.29;51.72;102283.66;4950133;29;20039;-71
2022/07/16 08:31:52;;;;;;;5.07;1.20;;;;;;;21.56;50.61;102284.47;4951338;29;20027;-73
2022/07/16 08:34:18;;;;;;;2.97;1.25;;;;;;;21.84;49.93;102285.28;4949869;29;20027;-72
2022/07/16 08:36:43;;;;;;;3.88;1.27;;;;;;;21.98;49.62;102285.75;4953027;28;20019;-73
2022/07/16 08:39:08;;;;;;;6.90;1.30;;;;;;;22.11;49.44;102292.47;4970280;28;20037;-71
2022/07/16 08:41:35;;;;;;;5.03;1.20;;;;;;;22.23;49.80;102298.41;4969205;28;20031;-71
2022/07/16 08:44:01;;;;;;;4.65;1.60;;;;;;;22.43;50.06;102291.91;4953472;28;20042;-71
2022/07/16 08:46:28;;;;;;;2.70;1.10;;;;;;;22.66;48.66;102294.06;4970410;28;20110;-72
2022/07/16 08:48:53;;;;;;;2.50;0.95;;;;;;;22.29;46.91;102295.13;4970218;28;20159;-71
2022/07/16 08:51:30;;;;;;;2.22;0.95;;;;;;;22.13;46.66;102303.03;4969704;28;20023;-73
2022/07/16 08:53:58;;;;;;;2.05;1.13;;;;;;;22.08;48.23;102302.66;4969330;28;20027;-73
2022/07/16 08:56:26;;;;;;;3.28;1.10;;;;;;;22.40;48.12;102308.28;4964077;28;20519;-72
2022/07/16 08:58:52;;;;;;;4.57;1.13;;;;;;;22.20;46.78;102304.94;4950204;29;20510;-72
2022/07/16 09:01:17;;;;;;;3.65;1.20;;;;;;;22.55;47.37;102310.41;4949316;28;20062;-71
2022/07/16 09:03:43;;;;;;;3.67;1.45;;;;;;;22.39;47.03;102314.63;4950622;29;20062;-71
2022/07/16 09:06:08;;;;;;;4.38;1.20;;;;;;;22.13;46.78;102319.13;4933500;29;20073;-71
2022/07/16 09:08:33;;;;;;;7.25;1.20;;;;;;;21.97;47.06;102311.69;4949500;29;20031;-71
2022/07/16 09:11:20;;;;;;;2.70;1.25;;;;;;;22.26;47.65;102316.88;4951163;29;20108;-72
2022/07/16 09:14:02;;;;;;;2.50;1.00;;;;;;;22.71;46.06;102316.75;4950600;29;20342;-74
2022/07/16 09:16:32;;;;;;;2.47;1.00;;;;;;;22.97;44.28;102321.31;4949784;29;20051;-74
2022/07/16 09:19:05;;;;;;;3.13;1.30;;;;;;;22.98;44.19;102321.16;4950675;29;20539;-73
2022/07/16 09:21:32;;;;;;;3.85;1.05;;;;;;;22.56;43.87;102318.31;4950271;29;20031;-72
2022/07/16 09:23:57;;;;;;;3.15;1.20;;;;;;;22.62;43.83;102320.38;4950028;29;20031;-73
2022/07/16 09:26:26;;;;;;;3.25;1.10;;;;;;;22.74;44.23;102323.63;4949953;29;20475;-74
2022/07/16 09:28:52;;;;;;;2.47;1.10;;;;;;;22.92;43.70;102327.16;4933558;29;20064;-72
2022/07/16 09:31:39;;;;;;;3.15;1.10;;;;;;;23.20;44.87;102321.59;4950004;28;20122;-74
2022/07/16 09:34:12;;;;;;;3.63;1.15;;;;;;;23.17;42.28;102324.59;4954082;29;20027;-72
2022/07/16 09:36:40;;;;;;;3.22;1.20;;;;;;;23.12;42.10;102336.66;4936593;28;20019;-74
2022/07/16 09:39:07;;;;;;;2.97;0.98;;;;;;;23.34;43.08;102334.44;4972851;28;20610;-73
2022/07/16 09:41:44;;;;;;;9.82;1.00;;;;;;;23.56;44.03;102336.56;4972456;28;20055;-71
2022/07/16 09:44:41;;;;;;;3.35;1.10;;;;;;;23.73;44.18;102335.63;4972513;28;20023;-72
2022/07/16 09:47:09;;;;;;;4.55;1.10;;;;;;;23.79;41.45;102338.66;4968621;28;20047;-72
2022/07/16 09:49:39;;;;;;;2.50;1.17;;;;;;;23.81;41.28;102345.56;4954518;28;20025;-73
2022/07/16 09:52:07;;;;;;;3.72;1.10;;;;;;;23.60;40.69;102355.88;4969321;28;20073;-72
2022/07/16 09:54:35;;;;;;;4.15;1.30;;;;;;;23.45;41.36;102347.56;4954147;28;20502;-73
2022/07/16 09:57:09;;;;;;;1.90;1.00;;;;;;;23.60;41.92;102354.03;4971646;28;20046;-74
2022/07/16 09:59:35;;;;;;;2.65;1.10;;;;;;;23.66;40.50;102349.91;4971891;28;20031;-71
2022/07/16 10:02:03;;;;;;;2.55;1.00;;;;;;;23.94;41.29;102345.91;4973201;28;20031;-71
2022/07/16 10:04:29;;;;;;;5.28;1.30;;;;;;;24.19;42.23;102352.19;4971420;28;20027;-72
2022/07/16 10:06:54;;;;;;;2.33;1.00;;;;;;;24.23;39.91;102353.56;4972814;28;20074;-72
2022/07/16 10:09:21;;;;;;;3.17;1.10;;;;;;;24.48;39.59;102353.59;4972954;28;20360;-73
2022/07/16 10:11:47;;;;;;;3.00;0.88;;;;;;;24.66;38.94;102355.09;4974185;28;20026;-74
2022/07/16 10:14:13;;;;;;;3.25;1.08;;;;;;;24.49;37.66;102358.81;4955959;28;20038;-72
2022/07/16 10:16:41;;;;;;;4.65;1.20;;;;;;;24.22;37.80;102359.09;4972958;28;20530;-74
2022/07/16 10:19:07;;;;;;;3.85;1.10;;;;;;;24.33;39.45;102361.50;4972010;28;20059;-72
2022/07/16 10:21:32;;;;;;;3.00;1.20;;;;;;;24.40;38.71;102364.34;4972461;28;20026;-72
2022/07/16 10:24:07;;;;;;;2.50;1.02;;;;;;;24.23;39.13;102368.84;4972608;28;20078;-73
2022/07/16 10:26:34;;;;;;;3.17;1.20;;;;;;;24.40;39.26;102365.19;4971659;28;20434;-72
2022/07/16 10:28:59;;;;;;;2.13;1.00;;;;;;;24.59;38.75;102358.66;4972372;28;20034;-73
2022/07/16 10:31:37;;;;;;;3.10;1.20;;;;;;;24.68;39.68;102366.53;4954570;28;20038;-74
2022/07/16 10:34:14;;;;;;;2.10;1.05;;;;;;;24.67;38.57;102359.47;4972271;28;20066;-72
2022/07/16 10:36:50;;;;;;;3.47;1.30;;;;;;;24.55;38.93;102362.69;4970109;28;20058;-74
2022/07/16 10:39:21;;;;;;;4.88;1.42;;;;;;;24.31;39.66;102371.56;4953019;29;20102;-71
2022/07/16 10:41:50;;;;;;;4.95;1.23;;;;;;;24.27;38.92;102376.44;4952960;29;20031;-71
2022/07/16 10:44:20;;;;;;;3.60;0.93;;;;;;;24.24;40.17;102375.91;4951476;28;20027;-73
2022/07/16 10:46:57;;;;;;;5.95;1.45;;;;;;;23.96;40.12;102378.88;4934893;29;20117;-72
2022/07/16 10:49:24;;;;;;;6.82;1.23;;;;;;;23.93;41.05;102379.19;4952283;29;20038;-72
2022/07/16 10:51:53;;;;;;;4.60;1.10;;;;;;;24.27;42.40;102381.84;4952363;29;20020;-74
2022/07/16 10:54:19;;;;;;;3.67;1.25;;;;;;;24.42;40.67;102378.50;4933620;29;20027;-73
2022/07/16 10:56:49;;;;;;;4.32;1.17;;;;;;;24.91;40.61;102382.88;4957757;28;20029;-71
2022/07/16 10:59:22;;;;;;;4.47;1.00;;;;;;;24.70;38.67;102382.53;4971242;28;20050;-73
2022/07/16 11:01:48;;;;;;;;;;;;;;;25.05;40.64;102383.22;4971594;28;20078;-70
2022/07/16 11:04:24;;;;;;;6.43;0.90;;;;;;;24.19;38.38;102391.72;4972556;28;19921;-72
2022/07/16 11:06:50;;;;;;;3.17;1.10;;;;;;;23.92;39.43;102385.56;4972213;28;20403;-72
2022/07/16 11:09:27;;;;;;;4.15;1.38;;;;;;;24.09;40.64;102383.78;4970910;28;20023;-72
2022/07/16 11:11:54;;;;;;;4.25;1.30;;;;;;;24.25;38.92;102383.81;4971864;28;20475;-73
2022/07/16 11:14:19;;;;;;;3.58;1.40;;;;;;;24.54;38.76;102378.00;4970749;28;20154;-73
2022/07/16 11:16:49;;;;;;;4.95;1.30;;;;;;;24.52;38.85;102395.31;4970576;28;20420;-73
2022/07/16 11:19:15;;;;;;;3.33;1.25;;;;;;;24.27;39.69;102395.28;4971382;28;20165;-72
2022/07/16 11:21:59;;;;;;;4.75;1.33;;;;;;;24.04;40.19;102402.28;4953235;28;20037;-71
2022/07/16 11:24:26;;;;;;;3.40;1.20;;;;;;;23.74;39.37;102399.13;4970580;28;20031;-73
2022/07/16 11:26:53;;;;;;;4.65;1.23;;;;;;;23.60;38.73;102394.34;4971177;28;20027;-73
2022/07/16 11:29:25;;;;;;;1.70;1.10;;;;;;;24.07;40.19;102393.88;4952362;28;20143;-73
2022/07/16 11:31:52;;;;;;;2.92;1.05;;;;;;;24.20;39.98;102391.53;4971280;28;20030;-73
2022/07/16 11:34:18;;;;;;;7.45;1.48;;;;;;;24.18;40.32;102398.94;4970254;28;20046;-74
2022/07/16 11:36:47;;;;;;;6.50;1.27;;;;;;;23.87;38.14;102395.97;4967834;28;20035;-72
2022/07/16 11:39:18;;;;;;;5.38;1.40;;;;;;;23.74;38.98;102407.19;4951499;29;20031;-73